sensor_id;sensor_type;location;lat;lon;timestamp;P1;durP1;ratioP1;P2;durP2;ratioP2
46941;SDS011;32676;52.630;4.896;2023-03-13T00:01:25;33.08;;;6.82;;
46941;SDS011;32676;52.630;4.896;2023-03-13T00:03:54;30.08;;;7.60;;
46941;SDS011;32676;52.630;4.896;2023-03-13T00:06:23;42.30;;;7.38;;
46941;SDS011;32676;52.630;4.896;2023-03-13T00:08:50;35.33;;;7.57;;
46941;SDS011;32676;52.630;4.896;2023-03-13T00:11:19;49.90;;;7.97;;
46941;SDS011;32676;52.630;4.896;2023-03-13T00:13:45;36.65;;;6.13;;
46941;SDS011;32676;52.630;4.896;2023-03-13T00:16:15;29.55;;;6.95;;
46941;SDS011;32676;52.630;4.896;2023-03-13T00:18:43;53.25;;;10.30;;
46941;SDS011;32676;52.630;4.896;2023-03-13T00:21:11;47.80;;;8.75;;
46941;SDS011;32676;52.630;4.896;2023-03-13T00:23:39;28.92;;;8.38;;
46941;SDS011;32676;52.630;4.896;2023-03-13T00:26:07;43.13;;;7.82;;
46941;SDS011;32676;52.630;4.896;2023-03-13T00:28:35;41.58;;;7.47;;
46941;SDS011;32676;52.630;4.896;2023-03-13T00:31:03;27.65;;;6.55;;
46941;SDS011;32676;52.630;4.896;2023-03-13T00:33:31;32.20;;;6.57;;
46941;SDS011;32676;52.630;4.896;2023-03-13T00:35:58;36.33;;;6.47;;
46941;SDS011;32676;52.630;4.896;2023-03-13T00:38:26;31.45;;;6.82;;
46941;SDS011;32676;52.630;4.896;2023-03-13T00:40:59;30.13;;;6.20;;
46941;SDS011;32676;52.630;4.896;2023-03-13T00:43:26;39.53;;;7.78;;
46941;SDS011;32676;52.630;4.896;2023-03-13T00:45:52;27.45;;;6.35;;
46941;SDS011;32676;52.630;4.896;2023-03-13T00:48:19;34.63;;;7.75;;
46941;SDS011;32676;52.630;4.896;2023-03-13T00:50:45;34.38;;;6.05;;
46941;SDS011;32676;52.630;4.896;2023-03-13T00:53:12;30.92;;;10.05;;
46941;SDS011;32676;52.630;4.896;2023-03-13T00:55:38;37.22;;;8.07;;
46941;SDS011;32676;52.630;4.896;2023-03-13T00:58:16;21.67;;;6.68;;
46941;SDS011;32676;52.630;4.896;2023-03-13T01:00:43;32.03;;;7.03;;
46941;SDS011;32676;52.630;4.896;2023-03-13T01:03:10;15.38;;;5.38;;
46941;SDS011;32676;52.630;4.896;2023-03-13T01:05:36;27.25;;;7.72;;
46941;SDS011;32676;52.630;4.896;2023-03-13T01:08:03;24.27;;;5.72;;
46941;SDS011;32676;52.630;4.896;2023-03-13T01:10:30;32.13;;;6.45;;
46941;SDS011;32676;52.630;4.896;2023-03-13T01:12:56;23.92;;;6.43;;
46941;SDS011;32676;52.630;4.896;2023-03-13T01:15:24;16.52;;;5.28;;
46941;SDS011;32676;52.630;4.896;2023-03-13T01:17:50;15.32;;;5.47;;
46941;SDS011;32676;52.630;4.896;2023-03-13T01:20:17;22.15;;;5.18;;
46941;SDS011;32676;52.630;4.896;2023-03-13T01:22:43;14.88;;;5.50;;
46941;SDS011;32676;52.630;4.896;2023-03-13T01:25:10;11.32;;;5.55;;
46941;SDS011;32676;52.630;4.896;2023-03-13T01:27:36;11.13;;;5.57;;
46941;SDS011;32676;52.630;4.896;2023-03-13T01:30:03;15.45;;;4.88;;
46941;SDS011;32676;52.630;4.896;2023-03-13T01:32:33;19.23;;;6.25;;
46941;SDS011;32676;52.630;4.896;2023-03-13T01:35:00;12.88;;;4.80;;
46941;SDS011;32676;52.630;4.896;2023-03-13T01:37:32;15.77;;;4.95;;
46941;SDS011;32676;52.630;4.896;2023-03-13T01:40:08;11.38;;;5.20;;
46941;SDS011;32676;52.630;4.896;2023-03-13T01:42:49;11.13;;;4.47;;
46941;SDS011;32676;52.630;4.896;2023-03-13T01:48:27;8.93;;;4.28;;
46941;SDS011;32676;52.630;4.896;2023-03-13T01:51:00;17.17;;;6.03;;
46941;SDS011;32676;52.630;4.896;2023-03-13T01:53:30;9.82;;;4.72;;
46941;SDS011;32676;52.630;4.896;2023-03-13T01:55:59;11.20;;;4.97;;
46941;SDS011;32676;52.630;4.896;2023-03-13T01:58:30;14.93;;;6.50;;
46941;SDS011;32676;52.630;4.896;2023-03-13T02:00:57;13.68;;;5.32;;
46941;SDS011;32676;52.630;4.896;2023-03-13T02:03:24;14.82;;;6.05;;
46941;SDS011;32676;52.630;4.896;2023-03-13T02:05:53;11.07;;;5.57;;
46941;SDS011;32676;52.630;4.896;2023-03-13T02:08:22;18.25;;;7.57;;
46941;SDS011;32676;52.630;4.896;2023-03-13T02:10:56;11.77;;;6.90;;
46941;SDS011;32676;52.630;4.896;2023-03-13T02:13:29;15.32;;;7.68;;
46941;SDS011;32676;52.630;4.896;2023-03-13T02:15:55;14.10;;;8.45;;
46941;SDS011;32676;52.630;4.896;2023-03-13T02:18:22;19.65;;;7.88;;
46941;SDS011;32676;52.630;4.896;2023-03-13T02:20:51;10.90;;;5.80;;
46941;SDS011;32676;52.630;4.896;2023-03-13T02:23:28;14.48;;;6.35;;
46941;SDS011;32676;52.630;4.896;2023-03-13T02:26:01;11.57;;;4.97;;
46941;SDS011;32676;52.630;4.896;2023-03-13T02:28:29;10.60;;;5.60;;
46941;SDS011;32676;52.630;4.896;2023-03-13T02:30:58;12.88;;;4.18;;
46941;SDS011;32676;52.630;4.896;2023-03-13T02:33:25;6.80;;;4.05;;
46941;SDS011;32676;52.630;4.896;2023-03-13T02:35:53;12.02;;;4.78;;
46941;SDS011;32676;52.630;4.896;2023-03-13T02:38:21;13.05;;;3.95;;
46941;SDS011;32676;52.630;4.896;2023-03-13T02:40:50;6.68;;;3.28;;
46941;SDS011;32676;52.630;4.896;2023-03-13T02:43:20;6.93;;;3.08;;
46941;SDS011;32676;52.630;4.896;2023-03-13T02:46:04;8.85;;;3.35;;
46941;SDS011;32676;52.630;4.896;2023-03-13T02:48:34;13.05;;;5.32;;
46941;SDS011;32676;52.630;4.896;2023-03-13T02:51:02;27.70;;;6.63;;
46941;SDS011;32676;52.630;4.896;2023-03-13T02:53:34;21.67;;;6.32;;
46941;SDS011;32676;52.630;4.896;2023-03-13T02:56:02;15.90;;;6.85;;
46941;SDS011;32676;52.630;4.896;2023-03-13T02:58:35;14.23;;;6.45;;
46941;SDS011;32676;52.630;4.896;2023-03-13T03:01:04;20.15;;;6.70;;
46941;SDS011;32676;52.630;4.896;2023-03-13T03:03:32;12.30;;;5.25;;
46941;SDS011;32676;52.630;4.896;2023-03-13T03:05:58;20.00;;;6.32;;
46941;SDS011;32676;52.630;4.896;2023-03-13T03:08:25;24.60;;;8.50;;
46941;SDS011;32676;52.630;4.896;2023-03-13T03:10:52;18.77;;;7.20;;
46941;SDS011;32676;52.630;4.896;2023-03-13T03:13:18;21.33;;;7.57;;
46941;SDS011;32676;52.630;4.896;2023-03-13T03:15:46;19.33;;;6.40;;
46941;SDS011;32676;52.630;4.896;2023-03-13T03:18:12;26.55;;;7.15;;
46941;SDS011;32676;52.630;4.896;2023-03-13T03:20:39;32.90;;;8.57;;
46941;SDS011;32676;52.630;4.896;2023-03-13T03:23:05;32.90;;;9.00;;
46941;SDS011;32676;52.630;4.896;2023-03-13T03:25:32;33.03;;;8.20;;
46941;SDS011;32676;52.630;4.896;2023-03-13T03:27:58;23.23;;;4.90;;
46941;SDS011;32676;52.630;4.896;2023-03-13T03:30:25;33.03;;;6.93;;
46941;SDS011;32676;52.630;4.896;2023-03-13T03:32:52;32.90;;;6.68;;
46941;SDS011;32676;52.630;4.896;2023-03-13T03:35:19;24.08;;;4.97;;
46941;SDS011;32676;52.630;4.896;2023-03-13T03:37:45;17.58;;;4.22;;
46941;SDS011;32676;52.630;4.896;2023-03-13T03:40:12;18.52;;;4.22;;
46941;SDS011;32676;52.630;4.896;2023-03-13T03:42:39;19.08;;;3.25;;
46941;SDS011;32676;52.630;4.896;2023-03-13T03:45:05;25.20;;;4.38;;
46941;SDS011;32676;52.630;4.896;2023-03-13T03:47:33;16.70;;;4.80;;
46941;SDS011;32676;52.630;4.896;2023-03-13T03:50:00;21.48;;;3.28;;
46941;SDS011;32676;52.630;4.896;2023-03-13T03:52:27;20.55;;;5.38;;
46941;SDS011;32676;52.630;4.896;2023-03-13T03:54:54;26.50;;;5.13;;
46941;SDS011;32676;52.630;4.896;2023-03-13T03:57:20;23.70;;;5.05;;
46941;SDS011;32676;52.630;4.896;2023-03-13T03:59:47;30.73;;;4.80;;
46941;SDS011;32676;52.630;4.896;2023-03-13T04:02:14;25.15;;;4.70;;
46941;SDS011;32676;52.630;4.896;2023-03-13T04:04:41;27.52;;;6.93;;
46941;SDS011;32676;52.630;4.896;2023-03-13T04:07:09;21.55;;;3.65;;
46941;SDS011;32676;52.630;4.896;2023-03-13T04:09:35;41.75;;;6.25;;
46941;SDS011;32676;52.630;4.896;2023-03-13T04:12:02;25.27;;;7.00;;
46941;SDS011;32676;52.630;4.896;2023-03-13T04:14:29;21.10;;;5.30;;
46941;SDS011;32676;52.630;4.896;2023-03-13T04:16:55;29.30;;;5.22;;
46941;SDS011;32676;52.630;4.896;2023-03-13T04:19:21;15.05;;;4.00;;
46941;SDS011;32676;52.630;4.896;2023-03-13T04:21:48;28.33;;;5.07;;
46941;SDS011;32676;52.630;4.896;2023-03-13T04:24:16;24.55;;;4.53;;
46941;SDS011;32676;52.630;4.896;2023-03-13T04:26:42;21.48;;;5.25;;
46941;SDS011;32676;52.630;4.896;2023-03-13T04:29:09;22.70;;;5.63;;
46941;SDS011;32676;52.630;4.896;2023-03-13T04:31:35;27.10;;;5.63;;
46941;SDS011;32676;52.630;4.896;2023-03-13T04:34:02;33.15;;;6.00;;
46941;SDS011;32676;52.630;4.896;2023-03-13T04:36:28;22.58;;;6.32;;
46941;SDS011;32676;52.630;4.896;2023-03-13T04:38:55;36.83;;;4.95;;
46941;SDS011;32676;52.630;4.896;2023-03-13T04:41:22;23.05;;;5.25;;
46941;SDS011;32676;52.630;4.896;2023-03-13T04:43:49;18.60;;;3.90;;
46941;SDS011;32676;52.630;4.896;2023-03-13T04:46:15;21.88;;;6.63;;
46941;SDS011;32676;52.630;4.896;2023-03-13T04:48:42;36.78;;;6.32;;
46941;SDS011;32676;52.630;4.896;2023-03-13T04:51:09;19.25;;;5.20;;
46941;SDS011;32676;52.630;4.896;2023-03-13T04:53:35;33.08;;;7.78;;
46941;SDS011;32676;52.630;4.896;2023-03-13T04:56:02;25.38;;;5.03;;
46941;SDS011;32676;52.630;4.896;2023-03-13T04:58:30;21.27;;;4.25;;
46941;SDS011;32676;52.630;4.896;2023-03-13T05:00:56;25.15;;;5.75;;
46941;SDS011;32676;52.630;4.896;2023-03-13T05:03:23;23.15;;;5.07;;
46941;SDS011;32676;52.630;4.896;2023-03-13T05:05:49;27.98;;;6.00;;
46941;SDS011;32676;52.630;4.896;2023-03-13T05:08:16;18.25;;;4.35;;
46941;SDS011;32676;52.630;4.896;2023-03-13T05:10:42;23.95;;;4.60;;
46941;SDS011;32676;52.630;4.896;2023-03-13T05:13:09;30.60;;;5.13;;
46941;SDS011;32676;52.630;4.896;2023-03-13T05:15:37;22.73;;;5.38;;
46941;SDS011;32676;52.630;4.896;2023-03-13T05:18:03;22.95;;;4.18;;
46941;SDS011;32676;52.630;4.896;2023-03-13T05:20:30;35.13;;;5.32;;
46941;SDS011;32676;52.630;4.896;2023-03-13T05:22:56;18.58;;;4.07;;
46941;SDS011;32676;52.630;4.896;2023-03-13T05:25:23;21.23;;;5.20;;
46941;SDS011;32676;52.630;4.896;2023-03-13T05:27:49;17.25;;;4.03;;
46941;SDS011;32676;52.630;4.896;2023-03-13T05:30:16;20.35;;;4.13;;
46941;SDS011;32676;52.630;4.896;2023-03-13T05:32:45;21.13;;;4.20;;
46941;SDS011;32676;52.630;4.896;2023-03-13T05:35:15;15.50;;;4.28;;
46941;SDS011;32676;52.630;4.896;2023-03-13T05:37:42;20.73;;;3.67;;
46941;SDS011;32676;52.630;4.896;2023-03-13T05:40:10;25.98;;;5.85;;
46941;SDS011;32676;52.630;4.896;2023-03-13T05:42:37;23.00;;;3.95;;
46941;SDS011;32676;52.630;4.896;2023-03-13T05:45:05;23.45;;;4.28;;
46941;SDS011;32676;52.630;4.896;2023-03-13T05:47:33;19.00;;;3.63;;
46941;SDS011;32676;52.630;4.896;2023-03-13T05:50:01;32.83;;;5.53;;
46941;SDS011;32676;52.630;4.896;2023-03-13T05:52:27;21.15;;;3.60;;
46941;SDS011;32676;52.630;4.896;2023-03-13T05:54:54;24.70;;;4.57;;
46941;SDS011;32676;52.630;4.896;2023-03-13T05:57:21;28.50;;;6.10;;
46941;SDS011;32676;52.630;4.896;2023-03-13T05:59:47;17.65;;;3.25;;
46941;SDS011;32676;52.630;4.896;2023-03-13T06:02:14;20.38;;;3.40;;
46941;SDS011;32676;52.630;4.896;2023-03-13T06:04:40;30.70;;;5.28;;
46941;SDS011;32676;52.630;4.896;2023-03-13T06:07:08;29.73;;;7.75;;
46941;SDS011;32676;52.630;4.896;2023-03-13T06:09:35;24.55;;;4.95;;
46941;SDS011;32676;52.630;4.896;2023-03-13T06:12:01;25.60;;;4.68;;
46941;SDS011;32676;52.630;4.896;2023-03-13T06:14:28;24.77;;;3.80;;
46941;SDS011;32676;52.630;4.896;2023-03-13T06:16:54;30.35;;;5.35;;
46941;SDS011;32676;52.630;4.896;2023-03-13T06:19:21;22.98;;;4.88;;
46941;SDS011;32676;52.630;4.896;2023-03-13T06:21:51;29.73;;;5.20;;
46941;SDS011;32676;52.630;4.896;2023-03-13T06:24:19;27.58;;;4.57;;
46941;SDS011;32676;52.630;4.896;2023-03-13T06:26:46;24.60;;;4.85;;
46941;SDS011;32676;52.630;4.896;2023-03-13T06:29:13;26.65;;;4.53;;
46941;SDS011;32676;52.630;4.896;2023-03-13T06:31:40;25.70;;;3.97;;
46941;SDS011;32676;52.630;4.896;2023-03-13T06:34:06;27.50;;;3.88;;
46941;SDS011;32676;52.630;4.896;2023-03-13T06:36:33;23.02;;;5.10;;
46941;SDS011;32676;52.630;4.896;2023-03-13T06:39:01;25.52;;;4.60;;
46941;SDS011;32676;52.630;4.896;2023-03-13T06:41:31;18.67;;;3.92;;
46941;SDS011;32676;52.630;4.896;2023-03-13T06:43:58;26.77;;;5.03;;
46941;SDS011;32676;52.630;4.896;2023-03-13T06:46:24;26.60;;;4.97;;
46941;SDS011;32676;52.630;4.896;2023-03-13T06:48:51;25.70;;;5.18;;
46941;SDS011;32676;52.630;4.896;2023-03-13T06:51:20;22.60;;;5.05;;
46941;SDS011;32676;52.630;4.896;2023-03-13T06:53:50;13.68;;;3.15;;
46941;SDS011;32676;52.630;4.896;2023-03-13T06:56:17;18.77;;;4.40;;
46941;SDS011;32676;52.630;4.896;2023-03-13T06:58:47;17.10;;;3.28;;
46941;SDS011;32676;52.630;4.896;2023-03-13T07:01:14;23.98;;;5.57;;
46941;SDS011;32676;52.630;4.896;2023-03-13T07:03:42;17.92;;;3.05;;
46941;SDS011;32676;52.630;4.896;2023-03-13T07:06:10;22.77;;;6.22;;
46941;SDS011;32676;52.630;4.896;2023-03-13T07:08:39;15.88;;;3.30;;
46941;SDS011;32676;52.630;4.896;2023-03-13T07:11:08;30.15;;;3.67;;
46941;SDS011;32676;52.630;4.896;2023-03-13T07:13:35;26.48;;;5.30;;
46941;SDS011;32676;52.630;4.896;2023-03-13T07:16:06;35.70;;;4.20;;
46941;SDS011;32676;52.630;4.896;2023-03-13T07:18:34;16.25;;;4.80;;
46941;SDS011;32676;52.630;4.896;2023-03-13T07:21:02;21.13;;;3.90;;
46941;SDS011;32676;52.630;4.896;2023-03-13T07:23:30;28.13;;;3.72;;
46941;SDS011;32676;52.630;4.896;2023-03-13T07:25:58;16.70;;;4.07;;
46941;SDS011;32676;52.630;4.896;2023-03-13T07:28:27;33.08;;;6.40;;
46941;SDS011;32676;52.630;4.896;2023-03-13T07:30:54;22.48;;;3.67;;
46941;SDS011;32676;52.630;4.896;2023-03-13T07:33:29;28.80;;;5.57;;
46941;SDS011;32676;52.630;4.896;2023-03-13T07:35:55;13.77;;;3.35;;
46941;SDS011;32676;52.630;4.896;2023-03-13T07:38:22;35.40;;;5.20;;
46941;SDS011;32676;52.630;4.896;2023-03-13T07:40:48;19.70;;;4.57;;
46941;SDS011;32676;52.630;4.896;2023-03-13T07:43:16;20.02;;;2.50;;
46941;SDS011;32676;52.630;4.896;2023-03-13T07:45:52;17.92;;;3.58;;
46941;SDS011;32676;52.630;4.896;2023-03-13T07:48:20;22.60;;;3.55;;
46941;SDS011;32676;52.630;4.896;2023-03-13T07:50:49;23.55;;;4.95;;
46941;SDS011;32676;52.630;4.896;2023-03-13T07:53:16;22.02;;;5.30;;
46941;SDS011;32676;52.630;4.896;2023-03-13T07:55:52;25.05;;;3.20;;
46941;SDS011;32676;52.630;4.896;2023-03-13T07:58:19;25.77;;;5.45;;
46941;SDS011;32676;52.630;4.896;2023-03-13T08:00:46;20.33;;;4.35;;
46941;SDS011;32676;52.630;4.896;2023-03-13T08:03:13;14.88;;;3.00;;
46941;SDS011;32676;52.630;4.896;2023-03-13T08:05:39;21.77;;;4.35;;
46941;SDS011;32676;52.630;4.896;2023-03-13T08:08:07;18.65;;;3.50;;
46941;SDS011;32676;52.630;4.896;2023-03-13T08:10:34;23.42;;;3.63;;
46941;SDS011;32676;52.630;4.896;2023-03-13T08:13:01;34.00;;;4.35;;
46941;SDS011;32676;52.630;4.896;2023-03-13T08:15:27;20.83;;;3.88;;
46941;SDS011;32676;52.630;4.896;2023-03-13T08:17:54;31.83;;;5.20;;
46941;SDS011;32676;52.630;4.896;2023-03-13T08:20:21;29.60;;;4.93;;
46941;SDS011;32676;52.630;4.896;2023-03-13T08:22:48;33.63;;;5.78;;
46941;SDS011;32676;52.630;4.896;2023-03-13T08:25:16;27.77;;;4.80;;
46941;SDS011;32676;52.630;4.896;2023-03-13T08:27:42;28.95;;;4.47;;
46941;SDS011;32676;52.630;4.896;2023-03-13T08:30:09;38.28;;;6.40;;
46941;SDS011;32676;52.630;4.896;2023-03-13T08:32:36;33.10;;;5.25;;
46941;SDS011;32676;52.630;4.896;2023-03-13T08:35:03;23.27;;;3.88;;
46941;SDS011;32676;52.630;4.896;2023-03-13T08:37:30;23.00;;;3.85;;
46941;SDS011;32676;52.630;4.896;2023-03-13T08:39:57;32.28;;;5.03;;
46941;SDS011;32676;52.630;4.896;2023-03-13T08:42:24;18.02;;;3.45;;
46941;SDS011;32676;52.630;4.896;2023-03-13T08:44:51;22.40;;;3.67;;
46941;SDS011;32676;52.630;4.896;2023-03-13T08:47:17;25.83;;;3.88;;
46941;SDS011;32676;52.630;4.896;2023-03-13T08:49:44;17.30;;;3.83;;
46941;SDS011;32676;52.630;4.896;2023-03-13T08:52:10;16.52;;;2.78;;
46941;SDS011;32676;52.630;4.896;2023-03-13T08:54:37;25.85;;;5.07;;
46941;SDS011;32676;52.630;4.896;2023-03-13T08:57:03;26.63;;;5.13;;
46941;SDS011;32676;52.630;4.896;2023-03-13T08:59:31;28.23;;;3.95;;
46941;SDS011;32676;52.630;4.896;2023-03-13T09:01:58;38.38;;;6.57;;
46941;SDS011;32676;52.630;4.896;2023-03-13T09:04:24;25.45;;;4.43;;
46941;SDS011;32676;52.630;4.896;2023-03-13T09:06:51;33.65;;;5.75;;
46941;SDS011;32676;52.630;4.896;2023-03-13T09:09:17;24.92;;;4.28;;
46941;SDS011;32676;52.630;4.896;2023-03-13T09:11:44;29.25;;;4.78;;
46941;SDS011;32676;52.630;4.896;2023-03-13T09:14:10;31.80;;;3.78;;
46941;SDS011;32676;52.630;4.896;2023-03-13T09:16:38;32.53;;;4.95;;
46941;SDS011;32676;52.630;4.896;2023-03-13T09:19:06;21.98;;;3.53;;
46941;SDS011;32676;52.630;4.896;2023-03-13T09:21:33;27.10;;;3.83;;
46941;SDS011;32676;52.630;4.896;2023-03-13T09:24:00;30.75;;;4.82;;
46941;SDS011;32676;52.630;4.896;2023-03-13T09:26:27;25.33;;;4.20;;
46941;SDS011;32676;52.630;4.896;2023-03-13T09:28:54;22.23;;;3.97;;
46941;SDS011;32676;52.630;4.896;2023-03-13T09:31:21;17.75;;;4.03;;
46941;SDS011;32676;52.630;4.896;2023-03-13T09:33:51;28.33;;;6.50;;
46941;SDS011;32676;52.630;4.896;2023-03-13T09:36:18;33.97;;;6.35;;
46941;SDS011;32676;52.630;4.896;2023-03-13T09:38:46;22.10;;;4.97;;
46941;SDS011;32676;52.630;4.896;2023-03-13T09:41:18;28.35;;;6.35;;
46941;SDS011;32676;52.630;4.896;2023-03-13T09:43:49;22.65;;;4.13;;
46941;SDS011;32676;52.630;4.896;2023-03-13T09:46:20;37.40;;;5.65;;
46941;SDS011;32676;52.630;4.896;2023-03-13T09:48:51;28.52;;;5.50;;
46941;SDS011;32676;52.630;4.896;2023-03-13T09:51:22;25.92;;;4.53;;
46941;SDS011;32676;52.630;4.896;2023-03-13T09:53:54;29.83;;;5.05;;
46941;SDS011;32676;52.630;4.896;2023-03-13T09:56:28;32.05;;;6.18;;
46941;SDS011;32676;52.630;4.896;2023-03-13T09:58:57;22.80;;;4.10;;
46941;SDS011;32676;52.630;4.896;2023-03-13T10:01:27;28.45;;;4.80;;
46941;SDS011;32676;52.630;4.896;2023-03-13T10:04:01;34.45;;;7.78;;
46941;SDS011;32676;52.630;4.896;2023-03-13T10:06:34;27.77;;;4.95;;
46941;SDS011;32676;52.630;4.896;2023-03-13T10:09:04;27.55;;;3.85;;
46941;SDS011;32676;52.630;4.896;2023-03-13T10:11:45;26.75;;;5.07;;
46941;SDS011;32676;52.630;4.896;2023-03-13T10:14:17;24.17;;;3.50;;
46941;SDS011;32676;52.630;4.896;2023-03-13T10:16:48;23.60;;;5.00;;
46941;SDS011;32676;52.630;4.896;2023-03-13T10:19:22;23.65;;;3.28;;
46941;SDS011;32676;52.630;4.896;2023-03-13T10:21:53;21.75;;;4.43;;
46941;SDS011;32676;52.630;4.896;2023-03-13T10:24:24;20.42;;;3.72;;
46941;SDS011;32676;52.630;4.896;2023-03-13T10:26:57;18.05;;;4.40;;
46941;SDS011;32676;52.630;4.896;2023-03-13T10:29:24;28.00;;;3.15;;
46941;SDS011;32676;52.630;4.896;2023-03-13T10:31:54;17.77;;;3.53;;
46941;SDS011;32676;52.630;4.896;2023-03-13T10:34:24;15.25;;;2.72;;
46941;SDS011;32676;52.630;4.896;2023-03-13T10:36:56;16.73;;;3.08;;
46941;SDS011;32676;52.630;4.896;2023-03-13T10:39:26;17.85;;;4.30;;
46941;SDS011;32676;52.630;4.896;2023-03-13T10:41:56;18.20;;;2.67;;
46941;SDS011;32676;52.630;4.896;2023-03-13T10:44:33;28.45;;;3.65;;
46941;SDS011;32676;52.630;4.896;2023-03-13T10:47:00;27.40;;;6.38;;
46941;SDS011;32676;52.630;4.896;2023-03-13T10:49:30;19.83;;;3.50;;
46941;SDS011;32676;52.630;4.896;2023-03-13T10:51:59;23.50;;;4.68;;
46941;SDS011;32676;52.630;4.896;2023-03-13T10:54:27;24.35;;;3.40;;
46941;SDS011;32676;52.630;4.896;2023-03-13T10:57:09;27.50;;;5.40;;
46941;SDS011;32676;52.630;4.896;2023-03-13T10:59:46;32.40;;;5.07;;
46941;SDS011;32676;52.630;4.896;2023-03-13T11:02:21;27.67;;;5.53;;
46941;SDS011;32676;52.630;4.896;2023-03-13T11:05:03;34.42;;;4.80;;
46941;SDS011;32676;52.630;4.896;2023-03-13T11:07:55;22.75;;;3.95;;
46941;SDS011;32676;52.630;4.896;2023-03-13T11:10:22;22.38;;;4.55;;
46941;SDS011;32676;52.630;4.896;2023-03-13T11:12:50;29.10;;;4.30;;
46941;SDS011;32676;52.630;4.896;2023-03-13T11:15:19;33.20;;;5.28;;
46941;SDS011;32676;52.630;4.896;2023-03-13T11:17:51;19.35;;;3.90;;
46941;SDS011;32676;52.630;4.896;2023-03-13T11:20:26;26.85;;;5.68;;
46941;SDS011;32676;52.630;4.896;2023-03-13T11:22:59;27.67;;;3.90;;
46941;SDS011;32676;52.630;4.896;2023-03-13T11:25:37;27.83;;;5.30;;
46941;SDS011;32676;52.630;4.896;2023-03-13T11:28:15;33.90;;;6.65;;
46941;SDS011;32676;52.630;4.896;2023-03-13T11:30:59;33.63;;;4.18;;
46941;SDS011;32676;52.630;4.896;2023-03-13T11:33:37;35.22;;;5.47;;
46941;SDS011;32676;52.630;4.896;2023-03-13T11:36:15;23.75;;;5.05;;
46941;SDS011;32676;52.630;4.896;2023-03-13T11:41:17;21.08;;;5.63;;
46941;SDS011;32676;52.630;4.896;2023-03-13T11:43:58;33.17;;;4.97;;
46941;SDS011;32676;52.630;4.896;2023-03-13T11:49:23;23.85;;;4.20;;
46941;SDS011;32676;52.630;4.896;2023-03-13T11:57:42;30.90;;;7.25;;
46941;SDS011;32676;52.630;4.896;2023-03-13T12:00:21;31.05;;;4.63;;
46941;SDS011;32676;52.630;4.896;2023-03-13T12:02:55;37.58;;;6.32;;
46941;SDS011;32676;52.630;4.896;2023-03-13T12:05:29;33.55;;;6.05;;
46941;SDS011;32676;52.630;4.896;2023-03-13T12:08:04;36.83;;;5.30;;
46941;SDS011;32676;52.630;4.896;2023-03-13T12:10:36;29.65;;;5.05;;
46941;SDS011;32676;52.630;4.896;2023-03-13T12:13:10;37.08;;;6.97;;
46941;SDS011;32676;52.630;4.896;2023-03-13T12:15:42;40.42;;;5.03;;
46941;SDS011;32676;52.630;4.896;2023-03-13T12:18:14;34.45;;;6.28;;
46941;SDS011;32676;52.630;4.896;2023-03-13T12:20:46;27.45;;;5.55;;
46941;SDS011;32676;52.630;4.896;2023-03-13T12:23:22;27.85;;;4.35;;
46941;SDS011;32676;52.630;4.896;2023-03-13T12:25:54;33.35;;;5.63;;
46941;SDS011;32676;52.630;4.896;2023-03-13T12:28:27;28.92;;;4.80;;
46941;SDS011;32676;52.630;4.896;2023-03-13T12:31:00;29.70;;;6.35;;
46941;SDS011;32676;52.630;4.896;2023-03-13T12:33:35;28.98;;;5.13;;
46941;SDS011;32676;52.630;4.896;2023-03-13T12:36:08;39.33;;;6.18;;
46941;SDS011;32676;52.630;4.896;2023-03-13T12:38:41;34.50;;;6.03;;
46941;SDS011;32676;52.630;4.896;2023-03-13T12:41:17;42.90;;;5.63;;
46941;SDS011;32676;52.630;4.896;2023-03-13T12:43:48;37.03;;;6.55;;
46941;SDS011;32676;52.630;4.896;2023-03-13T12:46:28;37.97;;;5.88;;
46941;SDS011;32676;52.630;4.896;2023-03-13T12:52:12;35.00;;;6.80;;
46941;SDS011;32676;52.630;4.896;2023-03-13T12:55:04;31.60;;;6.90;;
46941;SDS011;32676;52.630;4.896;2023-03-13T12:58:02;34.58;;;6.15;;
46941;SDS011;32676;52.630;4.896;2023-03-13T13:00:39;31.92;;;7.57;;
46941;SDS011;32676;52.630;4.896;2023-03-13T13:03:13;40.60;;;5.60;;
46941;SDS011;32676;52.630;4.896;2023-03-13T13:08:34;35.28;;;6.18;;
46941;SDS011;32676;52.630;4.896;2023-03-13T13:17:18;37.30;;;6.57;;
46941;SDS011;32676;52.630;4.896;2023-03-13T13:25:26;30.30;;;5.28;;
46941;SDS011;32676;52.630;4.896;2023-03-13T13:31:02;26.23;;;6.03;;
46941;SDS011;32676;52.630;4.896;2023-03-13T13:34:07;48.53;;;8.32;;
46941;SDS011;32676;52.630;4.896;2023-03-13T13:36:55;29.17;;;6.82;;
46941;SDS011;32676;52.630;4.896;2023-03-13T13:39:31;47.67;;;8.30;;
46941;SDS011;32676;52.630;4.896;2023-03-13T13:45:17;42.90;;;7.43;;
46941;SDS011;32676;52.630;4.896;2023-03-13T13:47:49;46.13;;;7.35;;
46941;SDS011;32676;52.630;4.896;2023-03-13T13:50:36;39.65;;;7.10;;
46941;SDS011;32676;52.630;4.896;2023-03-13T13:53:28;38.45;;;6.05;;
46941;SDS011;32676;52.630;4.896;2023-03-13T13:55:57;37.97;;;6.25;;
46941;SDS011;32676;52.630;4.896;2023-03-13T13:58:26;50.75;;;9.25;;
46941;SDS011;32676;52.630;4.896;2023-03-13T14:00:56;48.25;;;7.10;;
46941;SDS011;32676;52.630;4.896;2023-03-13T14:03:26;35.88;;;7.43;;
46941;SDS011;32676;52.630;4.896;2023-03-13T14:05:55;47.22;;;7.15;;
46941;SDS011;32676;52.630;4.896;2023-03-13T14:08:28;42.75;;;8.10;;
46941;SDS011;32676;52.630;4.896;2023-03-13T14:11:03;35.70;;;6.70;;
46941;SDS011;32676;52.630;4.896;2023-03-13T14:13:35;37.17;;;7.75;;
46941;SDS011;32676;52.630;4.896;2023-03-13T14:16:13;39.45;;;7.03;;
46941;SDS011;32676;52.630;4.896;2023-03-13T14:18:46;39.25;;;7.25;;
46941;SDS011;32676;52.630;4.896;2023-03-13T14:21:13;32.72;;;5.72;;
46941;SDS011;32676;52.630;4.896;2023-03-13T14:23:42;50.85;;;8.43;;
46941;SDS011;32676;52.630;4.896;2023-03-13T14:26:10;44.67;;;7.43;;
46941;SDS011;32676;52.630;4.896;2023-03-13T14:28:40;38.63;;;6.88;;
46941;SDS011;32676;52.630;4.896;2023-03-13T14:31:08;41.08;;;7.70;;
46941;SDS011;32676;52.630;4.896;2023-03-13T14:33:36;43.35;;;7.50;;
46941;SDS011;32676;52.630;4.896;2023-03-13T14:36:03;39.13;;;8.93;;
46941;SDS011;32676;52.630;4.896;2023-03-13T14:38:30;38.92;;;5.85;;
46941;SDS011;32676;52.630;4.896;2023-03-13T14:40:59;42.30;;;6.18;;
46941;SDS011;32676;52.630;4.896;2023-03-13T14:43:28;35.38;;;6.97;;
46941;SDS011;32676;52.630;4.896;2023-03-13T14:45:57;41.92;;;7.93;;
46941;SDS011;32676;52.630;4.896;2023-03-13T14:48:26;49.10;;;8.30;;
46941;SDS011;32676;52.630;4.896;2023-03-13T14:50:59;31.60;;;6.43;;
46941;SDS011;32676;52.630;4.896;2023-03-13T14:53:28;35.85;;;6.35;;
46941;SDS011;32676;52.630;4.896;2023-03-13T14:56:09;48.80;;;9.15;;
46941;SDS011;32676;52.630;4.896;2023-03-13T14:58:38;45.83;;;6.00;;
46941;SDS011;32676;52.630;4.896;2023-03-13T15:01:12;46.28;;;7.70;;
46941;SDS011;32676;52.630;4.896;2023-03-13T15:03:47;34.08;;;6.07;;
46941;SDS011;32676;52.630;4.896;2023-03-13T15:06:15;33.55;;;7.55;;
46941;SDS011;32676;52.630;4.896;2023-03-13T15:08:44;42.53;;;7.82;;
46941;SDS011;32676;52.630;4.896;2023-03-13T15:11:21;49.13;;;7.55;;
46941;SDS011;32676;52.630;4.896;2023-03-13T15:13:51;36.13;;;6.30;;
46941;SDS011;32676;52.630;4.896;2023-03-13T15:16:19;42.53;;;7.03;;
46941;SDS011;32676;52.630;4.896;2023-03-13T15:18:48;40.25;;;7.13;;
46941;SDS011;32676;52.630;4.896;2023-03-13T15:21:18;29.52;;;7.35;;
46941;SDS011;32676;52.630;4.896;2023-03-13T15:23:48;43.28;;;7.82;;
46941;SDS011;32676;52.630;4.896;2023-03-13T15:26:16;46.58;;;9.40;;
46941;SDS011;32676;52.630;4.896;2023-03-13T15:28:44;39.67;;;7.70;;